Time;durP1;ratioP1;P1;durP2;ratioP2;P2;SDS_P1;SDS_P2;PMS_P1;PMS_P2;Temp;Humidity;BMP_temperature;BMP_pressure;BME280_temperature;BME280_humidity;BME280_pressure;Samples;Min_cycle;Max_cycle;Signal;HPM_P1;HPM_P2
2022/09/25 00:00:53;;;;;;;108.05;65.60;;;;;;;17.43;80.33;100926.16;5026616;28;20107;-80
2022/09/25 00:03:22;;;;;;;108.00;63.45;;;;;;;17.38;80.31;100922.31;5025201;28;20375;-81
2022/09/25 00:05:48;;;;;;;115.85;68.03;;;;;;;17.38;79.88;100930.34;5024678;28;20150;-81
2022/09/25 00:08:17;;;;;;;120.85;72.05;;;;;;;17.42;79.89;100924.47;5024779;28;20084;-84
2022/09/25 00:10:49;;;;;;;126.78;70.50;;;;;;;17.46;79.75;100930.34;5026168;28;20049;-81
2022/09/25 00:13:18;;;;;;;126.80;72.50;;;;;;;17.20;81.08;100907.28;5024791;28;20103;-80
2022/09/25 00:15:46;;;;;;;134.63;73.25;;;;;;;17.27;80.35;100899.38;5024962;28;20099;-80
2022/09/25 00:18:14;;;;;;;140.25;75.93;;;;;;;17.39;80.44;100918.63;5024816;28;20489;-80
2022/09/25 00:20:41;;;;;;;140.80;76.30;;;;;;;17.31;80.71;100922.19;5024877;28;20041;-80
2022/09/25 00:23:08;;;;;;;130.52;73.03;;;;;;;17.19;80.78;100891.38;5024438;28;20050;-79
2022/09/25 00:25:35;;;;;;;128.02;72.68;;;;;;;17.23;81.06;100909.63;5024546;28;20404;-80
2022/09/25 00:28:02;;;;;;;120.55;66.28;;;;;;;17.15;80.39;100880.13;5024220;28;20132;-80
2022/09/25 00:30:28;;;;;;;118.75;66.43;;;;;;;16.79;80.33;100843.00;5024556;28;20160;-80
2022/09/25 00:32:55;;;;;;;119.72;64.63;;;;;;;17.23;80.96;100904.28;5024681;28;20099;-79
2022/09/25 00:35:22;;;;;;;110.90;62.58;;;;;;;17.22;81.11;100904.44;5008387;28;20041;-79
2022/09/25 00:37:48;;;;;;;103.47;57.20;;;;;;;17.18;79.89;100885.16;5024422;28;20332;-79
2022/09/25 00:40:16;;;;;;;105.55;59.92;;;;;;;17.26;80.10;100900.41;5024464;28;20053;-79
2022/09/25 00:42:43;;;;;;;97.40;54.85;;;;;;;17.36;79.08;100897.50;5026025;28;20057;-79
2022/09/25 00:45:19;;;;;;;100.22;55.70;;;;;;;17.25;79.57;100896.84;5024277;28;20097;-79
2022/09/25 00:47:52;;;;;;;101.57;55.55;;;;;;;17.14;79.84;100873.09;5024308;28;20076;-79
2022/09/25 00:50:37;;;;;;;98.57;56.22;;;;;;;17.10;80.73;100890.53;5024291;28;20053;-81
2022/09/25 00:53:11;;;;;;;105.78;58.75;;;;;;;17.03;80.03;100850.16;5024196;28;20085;-80
2022/09/25 00:55:42;;;;;;;102.43;55.83;;;;;;;17.19;79.92;100875.28;5025325;28;20181;-80
2022/09/25 00:58:12;;;;;;;105.80;58.22;;;;;;;17.08;80.58;100879.97;5024314;28;20077;-81
2022/09/25 01:00:39;;;;;;;103.90;54.83;;;;;;;17.20;79.99;100880.44;5023964;28;20049;-81
2022/09/25 01:03:08;;;;;;;97.55;55.22;;;;;;;16.69;80.83;100815.53;5006797;28;20064;-81
2022/09/25 01:05:39;;;;;;;105.13;58.03;;;;;;;16.91;81.11;100845.34;5003077;28;20053;-81
2022/09/25 01:08:11;;;;;;;106.40;57.03;;;;;;;16.94;81.31;100845.00;5005465;28;20046;-82
2022/09/25 01:10:38;;;;;;;118.82;63.33;;;;;;;17.28;80.34;100883.13;5015951;28;20576;-80
2022/09/25 01:13:05;;;;;;;113.05;60.80;;;;;;;17.23;80.25;100877.44;5023793;28;20109;-82
2022/09/25 01:15:47;;;;;;;121.63;64.47;;;;;;;16.24;80.17;100715.16;5019933;28;20476;-80
2022/09/25 01:18:41;;;;;;;;;;;;;;;17.19;81.12;100876.09;5010239;28;20053;-81
2022/09/25 01:21:26;;;;;;;125.32;65.32;;;;;;;17.00;80.87;100841.63;5006459;28;20320;-80
2022/09/25 01:24:09;;;;;;;123.63;67.53;;;;;;;16.82;81.33;100815.03;5006286;28;20407;-82
2022/09/25 01:27:05;;;;;;;126.95;67.22;;;;;;;17.28;80.18;100875.06;5006281;28;20414;-83
2022/09/25 01:30:03;;;;;;;123.07;61.63;;;;;;;17.29;79.90;100876.72;5006090;28;20072;-81
2022/09/25 01:32:40;;;;;;;113.32;59.22;;;;;;;17.20;80.50;100867.03;5007242;28;20058;-82
2022/09/25 01:35:21;;;;;;;112.97;57.47;;;;;;;16.96;80.44;100824.22;5006748;28;20235;-81
2022/09/25 01:38:05;;;;;;;111.00;60.15;;;;;;;17.17;81.56;100867.38;5006881;28;20041;-80
2022/09/25 01:40:36;;;;;;;111.57;56.33;;;;;;;17.14;81.82;100865.06;5006289;28;20406;-82
2022/09/25 01:43:15;;;;;;;102.38;52.88;;;;;;;17.16;80.61;100843.41;5008386;28;20085;-82
2022/09/25 01:45:53;;;;;;;97.25;53.72;;;;;;;17.16;81.54;100863.03;5005986;28;20046;-81
2022/09/25 01:48:25;;;;;;;85.07;48.92;;;;;;;17.15;81.78;100864.03;5005751;28;20473;-81
2022/09/25 01:51:07;;;;;;;95.30;51.33;;;;;;;16.95;81.18;100817.19;5005971;28;20720;-81
2022/09/25 01:53:41;;;;;;;84.22;45.60;;;;;;;17.35;80.23;100855.56;5006964;28;20084;-81
2022/09/25 01:56:30;;;;;;;87.90;49.75;;;;;;;17.00;80.57;100820.19;5006733;28;20406;-81
2022/09/25 01:59:05;;;;;;;84.55;47.58;;;;;;;17.09;81.16;100835.25;5006438;28;20093;-82
2022/09/25 02:01:38;;;;;;;76.47;45.45;;;;;;;17.23;80.08;100845.25;5005377;28;20056;-82
2022/09/25 02:04:12;;;;;;;81.88;47.88;;;;;;;17.07;80.74;100829.22;5008549;28;20474;-81
2022/09/25 02:06:43;;;;;;;79.28;46.63;;;;;;;16.95;81.29;100809.13;5005637;28;20057;-81
2022/09/25 02:09:15;;;;;;;77.55;45.47;;;;;;;16.71;82.29;100786.72;5005615;28;20042;-82
2022/09/25 02:11:47;;;;;;;80.15;44.50;;;;;;;16.70;83.34;100784.19;5005717;28;20061;-82
2022/09/25 02:14:19;;;;;;;76.32;45.60;;;;;;;17.12;82.09;100837.56;5006070;28;20060;-83
2022/09/25 02:16:51;;;;;;;75.85;44.67;;;;;;;17.10;81.46;100823.47;5005467;28;20064;-81
2022/09/25 02:22:25;;;;;;;69.68;42.33;;;;;;;17.07;81.34;100818.47;5007011;28;20203;-81
2022/09/25 02:25:18;;;;;;;73.25;43.30;;;;;;;17.01;81.84;100825.34;5007180;28;20046;-81
2022/09/25 02:27:45;;;;;;;68.85;41.55;;;;;;;17.00;82.20;100817.50;5004652;28;20045;-82
2022/09/25 02:30:11;;;;;;;69.05;42.58;;;;;;;17.00;81.82;100833.59;5005737;28;20452;-82
2022/09/25 02:32:38;;;;;;;66.47;43.45;;;;;;;17.13;81.24;100830.34;5005788;28;20064;-83
2022/09/25 02:35:05;;;;;;;68.72;42.72;;;;;;;16.65;82.28;100776.66;5006457;28;20359;-83
2022/09/25 02:37:32;;;;;;;67.47;43.45;;;;;;;17.02;82.15;100832.41;5005801;28;20083;-82
2022/09/25 02:40:00;;;;;;;67.95;43.30;;;;;;;16.87;82.78;100818.88;5005861;28;20441;-83
2022/09/25 02:42:52;;;;;;;65.32;42.30;;;;;;;16.97;83.57;100833.94;5005727;28;20115;-82
2022/09/25 02:45:28;;;;;;;66.32;42.28;;;;;;;17.03;82.55;100833.22;5006056;28;20075;-80
2022/09/25 02:48:14;;;;;;;63.33;41.58;;;;;;;16.84;83.95;100829.94;5006075;28;20045;-83
2022/09/25 02:51:23;;;;;;;64.90;40.80;;;;;;;17.08;82.28;100847.78;4985793;28;20058;-81
2022/09/25 02:54:05;;;;;;;60.08;39.03;;;;;;;17.03;82.59;100843.97;4986592;28;20134;-84
2022/09/25 02:56:40;;;;;;;57.22;37.78;;;;;;;16.76;82.47;100808.47;5002341;28;20405;-83
2022/09/25 02:59:14;;;;;;;61.50;40.80;;;;;;;16.99;83.14;100848.00;5002424;28;20050;-83
2022/09/25 03:01:42;;;;;;;54.60;37.25;;;;;;;16.95;83.39;100847.50;4989722;28;20065;-83
2022/09/25 03:04:10;;;;;;;61.72;39.40;;;;;;;17.00;83.45;100855.88;5023120;28;20503;-82
2022/09/25 03:06:38;;;;;;;53.55;37.80;;;;;;;16.88;83.89;100847.34;5006388;28;20060;-82
2022/09/25 03:09:08;;;;;;;52.88;36.78;;;;;;;16.89;84.28;100853.53;5005652;28;20053;-81
2022/09/25 03:11:42;;;;;;;54.67;36.30;;;;;;;16.81;84.71;100835.63;5005000;28;20099;-81
2022/09/25 03:14:09;;;;;;;46.40;33.38;;;;;;;16.32;84.05;100743.78;5005584;28;20135;-81
2022/09/25 03:16:51;;;;;;;48.15;32.95;;;;;;;16.65;84.33;100815.06;5005167;28;20268;-83
2022/09/25 03:19:21;;;;;;;45.83;32.30;;;;;;;16.90;84.07;100838.31;5006563;28;20472;-82
2022/09/25 03:21:47;;;;;;;46.05;31.52;;;;;;;16.47;84.94;100778.75;5015802;28;20148;-84
2022/09/25 03:24:14;;;;;;;43.83;31.88;;;;;;;16.81;85.04;100835.63;5017627;28;20557;-84
2022/09/25 03:26:42;;;;;;;39.17;29.45;;;;;;;16.86;84.56;100833.28;5017044;28;20175;-81
2022/09/25 03:29:11;;;;;;;39.58;27.83;;;;;;;16.70;85.48;100821.72;5005891;28;20084;-82
2022/09/25 03:31:40;;;;;;;38.13;28.02;;;;;;;16.86;85.47;100853.91;5006815;28;20453;-83
2022/09/25 03:34:06;;;;;;;39.30;28.05;;;;;;;16.38;86.17;100786.81;5005062;28;20426;-82
2022/09/25 03:36:33;;;;;;;36.60;27.77;;;;;;;16.79;86.49;100851.06;5004618;28;20231;-84
2022/09/25 03:39:00;;;;;;;34.42;25.95;;;;;;;16.93;85.30;100856.75;5005765;28;20139;-83
2022/09/25 03:41:30;;;;;;;31.48;24.63;;;;;;;16.87;84.55;100831.47;5004534;28;20792;-83
2022/09/25 03:43:57;;;;;;;31.13;25.08;;;;;;;16.87;85.21;100828.78;5004632;28;20108;-82
2022/09/25 03:46:34;;;;;;;31.83;23.85;;;;;;;16.91;85.61;100843.50;5005137;28;20306;-82
2022/09/25 03:49:02;;;;;;;30.23;24.10;;;;;;;16.95;85.28;100849.38;5005413;28;20082;-84
2022/09/25 03:51:31;;;;;;;32.83;24.55;;;;;;;16.86;84.94;100822.56;5005066;28;20049;-84
2022/09/25 03:53:58;;;;;;;32.47;24.27;;;;;;;16.82;85.51;100818.56;5004832;28;20045;-83
2022/09/25 03:56:28;;;;;;;31.38;21.63;;;;;;;16.82;83.15;100778.34;5004967;28;20045;-82
2022/09/25 03:58:56;;;;;;;29.35;23.20;;;;;;;16.83;83.46;100796.09;5004772;28;20418;-84
2022/09/25 04:01:24;;;;;;;31.40;22.90;;;;;;;16.91;84.04;100810.47;5006307;28;20054;-82
2022/09/25 04:03:51;;;;;;;29.75;22.98;;;;;;;16.93;84.49;100837.97;5004689;28;20050;-82
2022/09/25 04:06:22;;;;;;;27.83;21.77;;;;;;;17.01;83.46;100840.63;5004270;28;20545;-82
2022/09/25 04:08:50;;;;;;;29.73;21.50;;;;;;;16.39;83.87;100750.94;5004877;28;20053;-83
2022/09/25 04:11:18;;;;;;;25.92;21.17;;;;;;;16.93;84.25;100841.47;5006005;28;20053;-83
2022/09/25 04:13:45;;;;;;;23.60;19.42;;;;;;;16.86;84.05;100833.28;5004116;28;20131;-83
2022/09/25 04:16:14;;;;;;;27.08;21.25;;;;;;;16.70;84.94;100822.59;5003832;28;20219;-82
2022/09/25 04:18:41;;;;;;;24.20;19.15;;;;;;;16.79;84.84;100826.09;5003372;28;20370;-82
2022/09/25 04:21:10;;;;;;;23.10;19.35;;;;;;;16.76;83.41;100810.34;5003876;28;20061;-84
2022/09/25 04:23:38;;;;;;;20.95;18.10;;;;;;;16.94;84.19;100850.34;5015207;28;20049;-82
2022/09/25 04:26:06;;;;;;;21.88;17.67;;;;;;;16.83;84.10;100835.47;5025604;28;20544;-81
2022/09/25 04:28:32;;;;;;;19.35;17.13;;;;;;;16.73;84.06;100832.97;5024521;28;20563;-81
2022/09/25 04:31:00;;;;;;;19.60;17.50;;;;;;;16.75;84.39;100835.44;5021209;28;20056;-82
2022/09/25 04:33:46;;;;;;;18.67;16.20;;;;;;;16.64;84.80;100828.63;5011566;28;20073;-81
2022/09/25 04:36:20;;;;;;;20.27;16.73;;;;;;;16.82;84.27;100850.75;5004708;28;20041;-81
2022/09/25 04:38:47;;;;;;;21.60;16.55;;;;;;;16.50;84.24;100802.50;5023823;28;20049;-80
2022/09/25 04:41:16;;;;;;;19.13;15.80;;;;;;;16.90;84.18;100859.78;5024085;28;20045;-82
2022/09/25 04:43:43;;;;;;;18.75;15.65;;;;;;;16.80;84.29;100855.44;5025194;28;20125;-82
2022/09/25 04:46:11;;;;;;;21.20;15.45;;;;;;;16.52;84.28;100797.81;5024331;28;20092;-81
2022/09/25 04:48:45;;;;;;;20.65;16.13;;;;;;;16.74;84.58;100845.34;5022906;28;20129;-83
2022/09/25 04:51:12;;;;;;;25.00;16.20;;;;;;;16.83;84.08;100832.78;5024394;28;20343;-81
2022/09/25 04:53:39;;;;;;;22.33;15.82;;;;;;;16.43;83.67;100752.28;5015074;28;20054;-83
2022/09/25 04:56:07;;;;;;;19.95;15.30;;;;;;;16.94;82.70;100834.25;5008752;28;20193;-81
2022/09/25 04:58:47;;;;;;;19.45;14.85;;;;;;;16.82;83.34;100841.84;5009447;28;20088;-80
2022/09/25 05:01:16;;;;;;;23.33;16.48;;;;;;;15.82;82.64;100678.72;5009930;28;20136;-81
2022/09/25 05:03:42;;;;;;;23.30;16.65;;;;;;;16.88;82.13;100847.34;5009713;28;20481;-80
2022/09/25 05:06:09;;;;;;;19.98;15.15;;;;;;;16.71;82.50;100834.97;5008443;28;20486;-81
2022/09/25 05:08:36;;;;;;;21.67;16.23;;;;;;;16.65;83.20;100841.00;5007989;28;20100;-82
2022/09/25 05:11:02;;;;;;;18.48;14.25;;;;;;;16.56;83.85;100817.91;5008082;28;20050;-83
2022/09/25 05:13:29;;;;;;;22.05;16.63;;;;;;;16.63;84.47;100843.88;5023722;28;20089;-81
2022/09/25 05:15:56;;;;;;;22.58;16.00;;;;;;;16.69;85.03;100854.91;5027817;28;20124;-81
2022/09/25 05:18:24;;;;;;;18.25;15.13;;;;;;;16.69;85.06;100846.88;5027943;28;20424;-80
2022/09/25 05:20:54;;;;;;;21.58;15.77;;;;;;;16.67;85.50;100855.94;5028007;28;20088;-80
2022/09/25 05:23:22;;;;;;;18.95;13.80;;;;;;;16.62;84.15;100819.91;5028178;28;20501;-80
2022/09/25 05:26:02;;;;;;;18.55;15.02;;;;;;;16.67;84.82;100847.03;5043796;28;20511;-81
2022/09/25 05:28:30;;;;;;;19.25;15.50;;;;;;;16.65;85.98;100847.22;5027838;28;20076;-82
2022/09/25 05:31:03;;;;;;;22.45;16.10;;;;;;;16.18;85.42;100770.22;5029074;28;20099;-82
2022/09/25 05:33:32;;;;;;;18.85;14.65;;;;;;;16.49;85.12;100825.78;5036945;28;20137;-82
2022/09/25 05:36:04;;;;;;;19.65;14.25;;;;;;;16.55;85.06;100822.41;5040798;28;20053;-83
2022/09/25 05:38:32;;;;;;;19.05;13.90;;;;;;;16.41;85.61;100813.25;5032237;28;20053;-83
2022/09/25 05:41:04;;;;;;;17.98;14.52;;;;;;;16.70;85.47;100865.47;5027784;28;20049;-81
2022/09/25 05:43:31;;;;;;;;;;;;;;;16.65;85.65;100868.66;5027403;28;20077;-81
2022/09/25 05:45:58;;;;;;;20.80;15.52;;;;;;;16.67;85.61;100865.78;5025999;28;19927;-82
2022/09/25 05:48:25;;;;;;;19.30;13.95;;;;;;;16.41;85.51;100810.56;5025876;28;20049;-82
2022/09/25 05:50:54;;;;;;;18.02;14.02;;;;;;;16.30;85.75;100792.16;5040616;28;20042;-81
2022/09/25 05:53:21;;;;;;;17.55;12.73;;;;;;;16.75;84.63;100841.66;5023537;28;20694;-80
2022/09/25 05:55:52;;;;;;;15.30;12.07;;;;;;;16.64;84.61;100831.28;5024891;28;20128;-81
2022/09/25 05:58:20;;;;;;;17.20;12.23;;;;;;;16.82;84.64;100850.75;5021248;28;20053;-82
2022/09/25 06:00:47;;;;;;;15.73;12.32;;;;;;;16.83;84.36;100855.06;5027626;28;20140;-81
2022/09/25 06:03:15;;;;;;;15.43;12.27;;;;;;;16.65;84.86;100831.13;5026848;28;20060;-83
2022/09/25 06:05:45;;;;;;;13.52;11.18;;;;;;;16.83;85.11;100862.28;5028734;28;20042;-83
2022/09/25 06:08:13;;;;;;;14.38;11.55;;;;;;;16.82;84.07;100853.41;5027081;28;20103;-81
2022/09/25 06:10:40;;;;;;;16.88;13.05;;;;;;;16.83;85.40;100852.41;5026139;28;20128;-81
2022/09/25 06:13:07;;;;;;;15.18;12.32;;;;;;;16.69;85.33;100831.63;5025760;28;20439;-83
2022/09/25 06:15:40;;;;;;;15.88;12.48;;;;;;;16.49;84.86;100816.94;5025864;28;20471;-82
2022/09/25 06:18:08;;;;;;;16.45;12.18;;;;;;;16.33;85.51;100789.13;5027969;28;20053;-81
2022/09/25 06:20:35;;;;;;;20.55;14.90;;;;;;;15.93;85.84;100718.53;5026367;28;20136;-82
2022/09/25 06:23:02;;;;;;;16.88;14.30;;;;;;;16.78;86.40;100853.91;5018143;28;20141;-82
2022/09/25 06:25:35;;;;;;;16.95;15.10;;;;;;;16.80;86.23;100843.88;5005319;28;20073;-80
2022/09/25 06:28:02;;;;;;;18.38;15.68;;;;;;;16.48;85.96;100791.97;5005535;28;20393;-82
2022/09/25 06:30:35;;;;;;;19.95;15.07;;;;;;;16.14;86.03;100741.28;5004916;28;20145;-81
2022/09/25 06:33:06;;;;;;;19.85;16.48;;;;;;;16.73;85.73;100826.75;5006044;28;20042;-81
2022/09/25 06:35:35;;;;;;;21.55;17.20;;;;;;;16.86;85.41;100849.38;5011552;28;20067;-82
2022/09/25 06:38:03;;;;;;;21.98;16.88;;;;;;;16.47;85.30;100784.09;5019960;28;20046;-83
2022/09/25 06:40:30;;;;;;;21.33;17.48;;;;;;;16.17;85.37;100733.75;5025136;28;20683;-82
2022/09/25 06:42:59;;;;;;;19.08;16.90;;;;;;;16.73;85.34;100827.59;5024751;28;20393;-81
2022/09/25 06:45:28;;;;;;;19.13;16.70;;;;;;;16.72;84.86;100823.22;5024912;28;20136;-82
2022/09/25 06:48:00;;;;;;;22.63;17.23;;;;;;;16.47;86.17;100776.88;5024034;28;20037;-81
2022/09/25 06:50:32;;;;;;;19.13;16.90;;;;;;;16.83;86.35;100830.94;5005998;28;20069;-82
2022/09/25 06:52:59;;;;;;;;;;;;;;;16.80;86.05;100836.66;5006228;28;20045;-80
2022/09/25 06:55:27;;;;;;;21.73;17.55;;;;;;;16.73;86.49;100816.03;5006071;28;20375;-81
2022/09/25 06:57:54;;;;;;;25.00;19.05;;;;;;;16.72;85.76;100815.19;5005376;28;20049;-82
2022/09/25 07:00:20;;;;;;;23.85;19.90;;;;;;;16.88;85.16;100841.16;5005410;28;20037;-81
2022/09/25 07:05:33;;;;;;;26.25;19.20;;;;;;;16.68;84.73;100805.84;5010435;28;20057;-84
2022/09/25 07:08:00;;;;;;;26.48;20.67;;;;;;;16.93;85.00;100854.88;5006811;28;20045;-82
2022/09/25 07:10:26;;;;;;;23.35;19.50;;;;;;;16.97;84.83;100860.75;5038316;28;20515;-79
2022/09/25 07:12:53;;;;;;;26.08;20.23;;;;;;;17.02;83.32;100861.06;5025946;28;20134;-80
2022/09/25 07:15:21;;;;;;;27.23;21.77;;;;;;;16.92;84.22;100847.00;5024871;28;20100;-81
2022/09/25 07:17:50;;;;;;;25.58;21.27;;;;;;;16.90;84.67;100838.31;5026762;28;20137;-81
2022/09/25 07:20:16;;;;;;;28.27;20.95;;;;;;;16.87;84.94;100832.28;5025943;28;20058;-81
2022/09/25 07:22:43;;;;;;;28.23;20.95;;;;;;;16.53;85.31;100786.09;5027001;28;20053;-81
2022/09/25 07:25:11;;;;;;;28.83;22.88;;;;;;;17.04;84.92;100856.38;5027118;28;20064;-81
2022/09/25 07:27:38;;;;;;;29.48;23.05;;;;;;;16.43;83.99;100754.13;5018500;28;20038;-79
2022/09/25 07:30:06;;;;;;;32.05;22.83;;;;;;;16.68;84.13;100797.78;5017033;28;20060;-80
2022/09/25 07:32:33;;;;;;;30.05;23.20;;;;;;;17.05;84.61;100861.56;5019744;28;20081;-81
2022/09/25 07:35:01;;;;;;;28.75;21.63;;;;;;;16.92;83.96;100828.22;5017514;28;20428;-79
2022/09/25 07:37:28;;;;;;;23.75;20.33;;;;;;;17.01;82.99;100832.56;5016503;28;20057;-79
2022/09/25 07:39:54;;;;;;;22.02;18.08;;;;;;;17.18;83.00;100861.00;5006489;28;20050;-78
2022/09/25 07:42:21;;;;;;;21.83;18.15;;;;;;;17.13;82.62;100858.00;5007318;28;20297;-81
2022/09/25 07:44:48;;;;;;;20.52;17.10;;;;;;;17.15;82.34;100864.03;5013476;28;20128;-82
2022/09/25 07:47:16;;;;;;;23.23;18.38;;;;;;;17.09;82.76;100857.53;5036280;28;20042;-82
2022/09/25 07:49:42;;;;;;;22.20;17.75;;;;;;;16.94;81.82;100840.47;5024086;28;20469;-80
2022/09/25 07:52:09;;;;;;;28.10;18.80;;;;;;;17.10;83.55;100877.13;5005700;28;20041;-79
2022/09/25 07:54:36;;;;;;;23.90;18.42;;;;;;;16.87;82.19;100834.97;5006511;28;20052;-79
2022/09/25 07:57:03;;;;;;;22.52;18.05;;;;;;;17.12;83.45;100885.03;5005706;28;20045;-79
2022/09/25 07:59:29;;;;;;;22.70;18.30;;;;;;;16.52;82.65;100793.28;5005285;28;20049;-80
2022/09/25 08:01:56;;;;;;;22.60;17.88;;;;;;;16.94;81.91;100861.06;5005319;28;20045;-79
2022/09/25 08:04:23;;;;;;;24.17;18.40;;;;;;;17.21;82.22;100900.06;5005035;28;20432;-80
2022/09/25 08:06:50;;;;;;;24.75;19.00;;;;;;;16.99;83.26;100880.16;5012578;28;20045;-80
2022/09/25 08:09:16;;;;;;;22.77;18.08;;;;;;;17.15;83.60;100895.41;5013564;28;20352;-81
2022/09/25 08:11:43;;;;;;;22.67;19.52;;;;;;;17.19;82.96;100900.25;5011413;28;20041;-79
2022/09/25 08:14:13;;;;;;;20.25;16.83;;;;;;;17.26;82.02;100905.78;5013148;28;20551;-79
2022/09/25 08:16:40;;;;;;;20.60;17.45;;;;;;;16.92;82.10;100853.22;5016268;28;20046;-79
2022/09/25 08:19:06;;;;;;;21.45;16.90;;;;;;;17.24;82.48;100903.25;5015926;28;20136;-80
2022/09/25 08:21:33;;;;;;;22.77;17.73;;;;;;;17.17;83.14;100896.91;5017985;28;20049;-80
2022/09/25 08:24:00;;;;;;;25.98;16.90;;;;;;;17.20;82.47;100903.75;5025966;28;20045;-80
2022/09/25 08:26:28;;;;;;;22.30;16.90;;;;;;;17.09;82.22;100884.34;5028642;28;20049;-80
2022/09/25 08:28:56;;;;;;;20.27;16.90;;;;;;;16.94;82.02;100861.91;5028701;28;20051;-80
2022/09/25 08:31:22;;;;;;;20.98;16.20;;;;;;;17.00;81.81;100860.41;5028637;28;20048;-79
2022/09/25 08:33:49;;;;;;;20.48;16.00;;;;;;;16.62;81.67;100795.78;5044550;28;20053;-80
2022/09/25 08:36:16;;;;;;;30.33;19.38;;;;;;;17.15;81.80;100866.72;5028426;28;20322;-79
2022/09/25 08:38:44;;;;;;;27.15;18.70;;;;;;;17.07;81.25;100837.25;5028368;28;20140;-80
2022/09/25 08:41:30;;;;;;;24.58;18.67;;;;;;;17.05;80.96;100841.94;5028992;28;20715;-80
2022/09/25 08:44:04;;;;;;;24.83;19.40;;;;;;;16.94;81.52;100828.91;5029601;28;20473;-81
2022/09/25 08:49:44;;;;;;;25.42;19.35;;;;;;;17.20;81.71;100863.53;5016076;28;20045;-80
2022/09/25 08:52:17;;;;;;;25.80;19.83;;;;;;;17.39;82.34;100894.47;5008364;28;20042;-81
2022/09/25 08:54:43;;;;;;;27.25;19.52;;;;;;;17.37;82.89;100904.53;5007902;28;20396;-80
2022/09/25 08:57:17;;;;;;;29.08;20.90;;;;;;;17.40;82.38;100914.94;5007749;28;20073;-80
2022/09/25 08:59:50;;;;;;;22.80;18.52;;;;;;;17.48;82.23;100912.22;5019026;28;20440;-82
2022/09/25 09:02:23;;;;;;;24.88;17.75;;;;;;;17.28;82.26;100885.81;5023606;28;20061;-79
2022/09/25 09:05:00;;;;;;;22.95;17.35;;;;;;;17.49;82.27;100908.53;5023678;28;20555;-78
2022/09/25 09:07:36;;;;;;;25.38;17.35;;;;;;;17.28;81.24;100858.97;5030758;28;20095;-82
2022/09/25 09:10:16;;;;;;;22.63;17.50;;;;;;;17.34;81.91;100856.59;5029500;28;20140;-79
2022/09/25 09:12:56;;;;;;;24.77;18.15;;;;;;;17.64;80.91;100876.41;5028898;28;20223;-82
2022/09/25 09:15:33;;;;;;;22.92;17.75;;;;;;;17.66;80.33;100866.31;5028657;28;20072;-83
2022/09/25 09:18:09;;;;;;;20.45;17.63;;;;;;;17.62;79.32;100852.44;5011415;28;20062;-81
2022/09/25 09:20:53;;;;;;;23.83;17.67;;;;;;;17.79;80.55;100863.06;5022068;28;20046;-80
2022/09/25 09:23:22;;;;;;;23.42;18.10;;;;;;;17.92;80.78;100863.34;5037998;28;20449;-79
2022/09/25 09:26:07;;;;;;;25.60;19.90;;;;;;;17.96;79.47;100867.34;5041247;28;20364;-79
2022/09/25 09:29:17;;;;;;;23.35;18.73;;;;;;;17.92;79.74;100868.72;5026481;28;20152;-80
2022/09/25 09:32:11;;;;;;;26.75;20.38;;;;;;;16.85;78.37;100691.38;5027919;28;20135;-78
2022/09/25 09:34:47;;;;;;;25.27;19.63;;;;;;;17.64;77.73;100801.22;5025127;28;20048;-80
2022/09/25 09:37:59;;;;;;;25.15;19.27;;;;;;;17.96;78.87;100861.97;5026616;28;20108;-81
2022/09/25 09:40:41;;;;;;;26.48;19.75;;;;;;;17.85;79.10;100862.41;5028035;28;20067;-80
2022/09/25 09:43:30;;;;;;;;;;;;;;;17.88;80.37;100878.16;5027975;28;20049;-79
2022/09/25 09:46:14;;;;;;;38.72;28.65;;;;;;;17.78;78.63;100856.84;5027684;28;20005;-78
2022/09/25 09:49:05;;;;;;;37.28;27.23;;;;;;;17.20;78.87;100759.72;5027598;28;20500;-81
2022/09/25 09:51:43;;;;;;;38.05;28.25;;;;;;;17.24;78.65;100776.31;5027744;28;20107;-81
2022/09/25 09:54:45;;;;;;;38.92;28.15;;;;;;;17.68;80.26;100859.78;5030779;28;20105;-83
2022/09/25 09:57:25;;;;;;;34.20;26.80;;;;;;;17.69;80.46;100849.84;5040247;28;20049;-82
2022/09/25 10:00:12;;;;;;;37.40;28.70;;;;;;;17.54;80.20;100819.41;5034403;28;20057;-82
2022/09/25 10:02:56;;;;;;;39.15;29.17;;;;;;;17.77;80.19;100843.59;5029942;28;20065;-78
2022/09/25 10:05:24;;;;;;;42.50;30.95;;;;;;;17.76;80.48;100850.00;5025678;28;20053;-81
2022/09/25 10:07:53;;;;;;;39.88;29.13;;;;;;;17.79;79.38;100841.56;5027665;28;20084;-81
2022/09/25 10:10:23;;;;;;;40.33;29.60;;;;;;;17.76;79.60;100847.31;5027227;28;20061;-81
2022/09/25 10:12:52;;;;;;;43.30;29.88;;;;;;;17.76;79.95;100850.00;5027077;28;20052;-81
2022/09/25 10:15:31;;;;;;;41.08;29.85;;;;;;;16.98;79.66;100734.53;5027155;28;20543;-81
2022/09/25 10:18:00;;;;;;;48.97;34.65;;;;;;;17.92;79.61;100871.41;5026502;28;20049;-81
2022/09/25 10:20:40;;;;;;;48.13;33.95;;;;;;;17.48;79.52;100810.25;5021899;28;20684;-81
2022/09/25 10:23:20;;;;;;;46.33;34.72;;;;;;;17.99;78.38;100883.13;5006630;28;20073;-81
2022/09/25 10:25:47;;;;;;;46.08;33.60;;;;;;;17.98;79.23;100867.16;5007605;28;20085;-82
2022/09/25 10:28:36;;;;;;;49.15;35.22;;;;;;;17.98;78.36;100868.00;5008567;28;20168;-81
2022/09/25 10:31:07;;;;;;;50.45;34.20;;;;;;;17.53;78.52;100794.44;5008660;28;20588;-81
2022/09/25 10:33:34;;;;;;;;;;;;;;;18.00;78.48;100875.88;5008593;28;20137;-78
2022/09/25 10:36:00;;;;;;;44.78;32.25;;;;;;;17.72;79.28;100834.25;5009921;28;19965;-78
2022/09/25 10:38:53;;;;;;;50.08;34.67;;;;;;;17.99;79.33;100883.13;4965171;28;20049;-77
2022/09/25 10:41:43;;;;;;;49.78;35.78;;;;;;;17.99;78.84;100872.38;5026637;28;20512;-79
2022/09/25 10:44:32;;;;;;;48.15;35.17;;;;;;;17.59;79.29;100782.16;5027871;28;20046;-78
2022/09/25 10:50:17;;;;;;;43.33;31.33;;;;;;;18.27;79.18;100863.75;5026343;28;20491;-81
2022/09/25 10:52:48;;;;;;;42.28;31.60;;;;;;;18.33;78.39;100852.31;5026130;28;20057;-81
2022/09/25 10:55:27;;;;;;;49.28;36.53;;;;;;;18.42;77.65;100863.81;5027421;28;20046;-81
2022/09/25 10:58:23;;;;;;;53.88;38.00;;;;;;;18.34;77.85;100859.34;5026044;28;20140;-81
2022/09/25 11:00:50;;;;;;;60.05;42.05;;;;;;;18.41;77.56;100870.22;5027156;28;20160;-82
2022/09/25 11:03:27;;;;;;;57.50;42.00;;;;;;;18.38;78.40;100866.03;5025659;28;20053;-79
2022/09/25 11:05:56;;;;;;;49.35;37.88;;;;;;;18.46;77.75;100860.56;5027166;28;20619;-81
2022/09/25 11:08:28;;;;;;;44.85;34.45;;;;;;;18.58;75.99;100867.19;5025709;28;20045;-81
2022/09/25 11:10:57;;;;;;;51.95;37.30;;;;;;;18.60;76.30;100858.13;5025725;28;20045;-81
2022/09/25 11:13:35;;;;;;;48.50;34.83;;;;;;;18.66;76.41;100865.44;5027327;28;20397;-80
2022/09/25 11:16:11;;;;;;;44.72;33.05;;;;;;;18.64;76.53;100843.25;5027180;28;20055;-80
2022/09/25 11:19:09;;;;;;;41.15;29.65;;;;;;;18.67;75.56;100848.28;5025882;28;20073;-81
2022/09/25 11:21:55;;;;;;;46.08;32.47;;;;;;;18.65;75.97;100853.00;5027058;28;20126;-80
2022/09/25 11:24:36;;;;;;;39.05;27.75;;;;;;;18.60;75.07;100848.19;5025479;28;20140;-82
2022/09/25 11:27:30;;;;;;;36.87;27.13;;;;;;;18.66;73.57;100841.22;5025858;28;20135;-80
2022/09/25 11:30:11;;;;;;;39.08;28.65;;;;;;;18.71;74.57;100876.47;5023204;28;20231;-79
2022/09/25 11:32:57;;;;;;;39.85;29.17;;;;;;;18.67;75.34;100859.88;5006671;28;20509;-83
2022/09/25 11:35:39;;;;;;;44.70;31.20;;;;;;;18.26;75.37;100801.13;5005844;28;20050;-80
2022/09/25 11:41:37;;;;;;;52.20;36.20;;;;;;;18.53;75.93;100840.00;5026708;28;20111;-79
2022/09/25 11:44:33;;;;;;;55.33;37.75;;;;;;;18.55;77.46;100829.91;5011595;28;20313;-80
2022/09/25 11:47:27;;;;;;;54.78;37.40;;;;;;;18.50;76.79;100818.88;5012821;28;20041;-79
2022/09/25 11:49:57;;;;;;;47.67;35.60;;;;;;;18.45;75.76;100797.09;5013220;28;20072;-79